NDB weather

Nouadhibou International Airport
Nouadhibou, Dakhlet Nouadhibou Region, Mauritania

Public forecast

Using degrees Celsius for public forecast. Weather courtesy of forecast.io.

Current aviation weather report (METAR) for Nouadhibou International Airport

Retrieved 2019/10/15 20:00 UTC (31 minutes ago):

GQPP 152000Z 34006KT 8000 NSC 23/19 Q1015 NOSIG

Aviation forecast (TAF) for Nouadhibou International Airport

Retrieved 2019/10/15 18:15 UTC (2 hours ago):

TAF GQPP 151700Z 1518/1618 36012KT 8000 NSC